sensor_id;sensor_type;location;lat;lon;timestamp;temperature;humidity
37938;DHT22;23763;48.130;11.602;2024-03-22T03:04:52;7.80;99.90
37938;DHT22;23763;48.130;11.602;2024-03-22T03:07:18;7.80;99.90
37938;DHT22;23763;48.130;11.602;2024-03-22T03:09:44;7.60;99.90
37938;DHT22;23763;48.130;11.602;2024-03-22T03:17:02;7.80;99.90
37938;DHT22;23763;48.130;11.602;2024-03-22T03:19:29;7.80;99.90
37938;DHT22;23763;48.130;11.602;2024-03-22T03:21:54;7.70;99.90
37938;DHT22;23763;48.130;11.602;2024-03-22T03:24:20;7.60;99.90
37938;DHT22;23763;48.130;11.602;2024-03-22T03:26:46;7.50;99.90
37938;DHT22;23763;48.130;11.602;2024-03-22T03:29:11;7.60;99.90
37938;DHT22;23763;48.130;11.602;2024-03-22T03:31:37;7.60;99.90
37938;DHT22;23763;48.130;11.602;2024-03-22T03:34:03;7.60;99.90
37938;DHT22;23763;48.130;11.602;2024-03-22T03:36:28;7.60;99.90
37938;DHT22;23763;48.130;11.602;2024-03-22T03:38:54;7.50;99.90
37938;DHT22;23763;48.130;11.602;2024-03-22T03:41:20;7.50;99.90
37938;DHT22;23763;48.130;11.602;2024-03-22T03:43:45;7.50;99.90
37938;DHT22;23763;48.130;11.602;2024-03-22T03:46:11;7.60;99.90
37938;DHT22;23763;48.130;11.602;2024-03-22T03:48:37;7.50;99.90
37938;DHT22;23763;48.130;11.602;2024-03-22T03:51:02;7.50;99.90
37938;DHT22;23763;48.130;11.602;2024-03-22T03:53:29;7.50;99.90
37938;DHT22;23763;48.130;11.602;2024-03-22T03:55:55;7.50;99.90
37938;DHT22;23763;48.130;11.602;2024-03-22T03:58:21;7.40;99.90
37938;DHT22;23763;48.130;11.602;2024-03-22T04:00:47;7.40;99.90
37938;DHT22;23763;48.130;11.602;2024-03-22T04:03:14;7.40;99.90
37938;DHT22;23763;48.130;11.602;2024-03-22T04:05:39;7.50;99.90
37938;DHT22;23763;48.130;11.602;2024-03-22T04:08:05;7.40;99.90
37938;DHT22;23763;48.130;11.602;2024-03-22T04:10:31;7.40;99.90
37938;DHT22;23763;48.130;11.602;2024-03-22T04:12:57;7.40;99.90
37938;DHT22;23763;48.130;11.602;2024-03-22T04:15:23;7.40;99.90
37938;DHT22;23763;48.130;11.602;2024-03-22T04:17:49;7.40;99.90
37938;DHT22;23763;48.130;11.602;2024-03-22T04:20:15;7.40;99.90
37938;DHT22;23763;48.130;11.602;2024-03-22T04:22:40;7.40;99.90
37938;DHT22;23763;48.130;11.602;2024-03-22T04:25:07;7.40;99.90
37938;DHT22;23763;48.130;11.602;2024-03-22T04:27:36;7.40;99.90
37938;DHT22;23763;48.130;11.602;2024-03-22T04:30:02;7.30;99.90
37938;DHT22;23763;48.130;11.602;2024-03-22T04:32:28;7.40;99.90
37938;DHT22;23763;48.130;11.602;2024-03-22T04:34:54;7.40;99.90
37938;DHT22;23763;48.130;11.602;2024-03-22T04:37:20;7.30;99.90
37938;DHT22;23763;48.130;11.602;2024-03-22T04:39:46;7.40;99.90
37938;DHT22;23763;48.130;11.602;2024-03-22T04:42:12;7.40;99.90
37938;DHT22;23763;48.130;11.602;2024-03-22T04:44:38;7.40;99.90
37938;DHT22;23763;48.130;11.602;2024-03-22T04:47:04;7.40;99.90
37938;DHT22;23763;48.130;11.602;2024-03-22T04:49:30;7.40;99.90
37938;DHT22;23763;48.130;11.602;2024-03-22T04:51:56;7.40;99.90
37938;DHT22;23763;48.130;11.602;2024-03-22T04:54:22;7.50;99.90
37938;DHT22;23763;48.130;11.602;2024-03-22T04:56:48;7.40;99.90
37938;DHT22;23763;48.130;11.602;2024-03-22T04:59:13;7.40;99.90
37938;DHT22;23763;48.130;11.602;2024-03-22T05:01:39;7.50;99.90
37938;DHT22;23763;48.130;11.602;2024-03-22T05:04:05;7.40;99.90
37938;DHT22;23763;48.130;11.602;2024-03-22T05:06:30;7.50;99.90
37938;DHT22;23763;48.130;11.602;2024-03-22T05:08:56;7.60;99.90
37938;DHT22;23763;48.130;11.602;2024-03-22T05:11:22;7.60;99.90
37938;DHT22;23763;48.130;11.602;2024-03-22T05:13:48;7.60;99.90
37938;DHT22;23763;48.130;11.602;2024-03-22T05:16:13;7.70;99.90
37938;DHT22;23763;48.130;11.602;2024-03-22T05:18:39;7.70;99.90
37938;DHT22;23763;48.130;11.602;2024-03-22T05:21:05;8.00;99.90
37938;DHT22;23763;48.130;11.602;2024-03-22T05:23:31;7.80;99.90
37938;DHT22;23763;48.130;11.602;2024-03-22T05:25:56;8.00;99.90
37938;DHT22;23763;48.130;11.602;2024-03-22T05:28:22;7.90;99.90
37938;DHT22;23763;48.130;11.602;2024-03-22T05:30:48;8.30;99.90
37938;DHT22;23763;48.130;11.602;2024-03-22T05:33:14;8.30;99.90
37938;DHT22;23763;48.130;11.602;2024-03-22T05:35:39;8.50;99.90
37938;DHT22;23763;48.130;11.602;2024-03-22T05:38:06;8.50;99.90
37938;DHT22;23763;48.130;11.602;2024-03-22T05:40:32;8.40;99.90
37938;DHT22;23763;48.130;11.602;2024-03-22T05:42:57;8.40;99.90
37938;DHT22;23763;48.130;11.602;2024-03-22T05:45:23;8.60;99.90
37938;DHT22;23763;48.130;11.602;2024-03-22T05:47:49;8.70;99.90
37938;DHT22;23763;48.130;11.602;2024-03-22T05:50:14;8.70;99.90
37938;DHT22;23763;48.130;11.602;2024-03-22T05:52:40;8.80;99.90
37938;DHT22;23763;48.130;11.602;2024-03-22T05:55:06;8.80;99.90
37938;DHT22;23763;48.130;11.602;2024-03-22T05:57:32;8.80;99.90
37938;DHT22;23763;48.130;11.602;2024-03-22T05:59:58;8.70;99.90
37938;DHT22;23763;48.130;11.602;2024-03-22T06:02:23;8.80;99.90
37938;DHT22;23763;48.130;11.602;2024-03-22T06:04:49;8.90;99.90
37938;DHT22;23763;48.130;11.602;2024-03-22T06:07:15;9.10;99.90
37938;DHT22;23763;48.130;11.602;2024-03-22T06:17:14;9.30;99.90
37938;DHT22;23763;48.130;11.602;2024-03-22T06:27:00;9.00;99.90
37938;DHT22;23763;48.130;11.602;2024-03-22T06:34:18;8.90;99.90
37938;DHT22;23763;48.130;11.602;2024-03-22T06:36:45;9.20;99.90
37938;DHT22;23763;48.130;11.602;2024-03-22T06:39:11;8.80;99.90
37938;DHT22;23763;48.130;11.602;2024-03-22T06:41:37;8.80;99.90
37938;DHT22;23763;48.130;11.602;2024-03-22T06:44:03;8.90;99.90
37938;DHT22;23763;48.130;11.602;2024-03-22T06:46:28;9.00;99.90
37938;DHT22;23763;48.130;11.602;2024-03-22T06:48:54;9.00;99.90
37938;DHT22;23763;48.130;11.602;2024-03-22T06:51:20;9.00;99.90
37938;DHT22;23763;48.130;11.602;2024-03-22T06:53:46;9.00;99.90
37938;DHT22;23763;48.130;11.602;2024-03-22T06:56:13;9.10;99.90
37938;DHT22;23763;48.130;11.602;2024-03-22T06:58:39;9.20;99.90
37938;DHT22;23763;48.130;11.602;2024-03-22T07:01:05;9.20;99.90
37938;DHT22;23763;48.130;11.602;2024-03-22T07:03:30;9.30;99.90
37938;DHT22;23763;48.130;11.602;2024-03-22T07:05:56;9.40;99.90
37938;DHT22;23763;48.130;11.602;2024-03-22T07:08:23;9.40;99.90
37938;DHT22;23763;48.130;11.602;2024-03-22T07:10:50;9.40;99.90
37938;DHT22;23763;48.130;11.602;2024-03-22T07:13:16;9.60;99.90
37938;DHT22;23763;48.130;11.602;2024-03-22T07:15:43;9.70;99.90
37938;DHT22;23763;48.130;11.602;2024-03-22T07:18:09;9.70;99.90
37938;DHT22;23763;48.130;11.602;2024-03-22T07:20:35;9.90;99.90
37938;DHT22;23763;48.130;11.602;2024-03-22T07:23:00;10.20;99.90
37938;DHT22;23763;48.130;11.602;2024-03-22T07:25:26;10.90;99.90
37938;DHT22;23763;48.130;11.602;2024-03-22T07:27:52;11.00;99.90
37938;DHT22;23763;48.130;11.602;2024-03-22T07:30:18;11.40;99.90
37938;DHT22;23763;48.130;11.602;2024-03-22T07:32:46;11.60;99.90
37938;DHT22;23763;48.130;11.602;2024-03-22T07:35:13;11.90;99.90
37938;DHT22;23763;48.130;11.602;2024-03-22T07:37:38;12.10;99.90
37938;DHT22;23763;48.130;11.602;2024-03-22T07:40:04;12.20;99.90
37938;DHT22;23763;48.130;11.602;2024-03-22T07:42:31;12.40;99.90
37938;DHT22;23763;48.130;11.602;2024-03-22T07:44:56;12.40;99.90
37938;DHT22;23763;48.130;11.602;2024-03-22T07:47:22;12.50;99.90
37938;DHT22;23763;48.130;11.602;2024-03-22T07:49:48;12.60;99.90
37938;DHT22;23763;48.130;11.602;2024-03-22T07:52:14;12.80;99.90
37938;DHT22;23763;48.130;11.602;2024-03-22T07:54:39;12.90;99.90
37938;DHT22;23763;48.130;11.602;2024-03-22T07:57:05;12.90;99.90
37938;DHT22;23763;48.130;11.602;2024-03-22T07:59:34;13.30;99.90
37938;DHT22;23763;48.130;11.602;2024-03-22T08:02:00;13.30;99.90
37938;DHT22;23763;48.130;11.602;2024-03-22T08:04:25;13.30;99.90
37938;DHT22;23763;48.130;11.602;2024-03-22T08:06:51;13.50;99.90
37938;DHT22;23763;48.130;11.602;2024-03-22T08:09:17;13.20;99.90
37938;DHT22;23763;48.130;11.602;2024-03-22T08:11:44;13.10;99.90
37938;DHT22;23763;48.130;11.602;2024-03-22T08:14:10;13.20;99.90
37938;DHT22;23763;48.130;11.602;2024-03-22T08:16:36;13.00;99.90
37938;DHT22;23763;48.130;11.602;2024-03-22T08:19:01;12.80;99.90
37938;DHT22;23763;48.130;11.602;2024-03-22T08:21:27;12.80;99.90
37938;DHT22;23763;48.130;11.602;2024-03-22T08:23:53;12.70;99.90
37938;DHT22;23763;48.130;11.602;2024-03-22T08:26:19;12.70;99.90
37938;DHT22;23763;48.130;11.602;2024-03-22T08:28:46;12.70;99.90
37938;DHT22;23763;48.130;11.602;2024-03-22T08:31:12;12.60;99.90
37938;DHT22;23763;48.130;11.602;2024-03-22T08:33:38;12.60;99.90
37938;DHT22;23763;48.130;11.602;2024-03-22T08:36:04;12.70;99.90
37938;DHT22;23763;48.130;11.602;2024-03-22T08:38:30;12.70;99.90
37938;DHT22;23763;48.130;11.602;2024-03-22T08:40:55;12.80;99.90
37938;DHT22;23763;48.130;11.602;2024-03-22T08:43:21;12.90;99.90
37938;DHT22;23763;48.130;11.602;2024-03-22T08:45:55;12.90;99.90
37938;DHT22;23763;48.130;11.602;2024-03-22T08:48:21;12.90;99.90
37938;DHT22;23763;48.130;11.602;2024-03-22T08:50:47;13.00;99.90
37938;DHT22;23763;48.130;11.602;2024-03-22T08:53:12;13.10;99.90
37938;DHT22;23763;48.130;11.602;2024-03-22T08:55:44;13.10;99.90
37938;DHT22;23763;48.130;11.602;2024-03-22T08:58:10;13.10;99.90
37938;DHT22;23763;48.130;11.602;2024-03-22T09:00:36;13.20;99.90
37938;DHT22;23763;48.130;11.602;2024-03-22T09:03:03;13.20;99.90
37938;DHT22;23763;48.130;11.602;2024-03-22T09:05:29;13.20;99.90
37938;DHT22;23763;48.130;11.602;2024-03-22T09:07:55;13.40;99.90
37938;DHT22;23763;48.130;11.602;2024-03-22T09:10:22;13.60;99.90
37938;DHT22;23763;48.130;11.602;2024-03-22T09:12:48;13.60;99.90
37938;DHT22;23763;48.130;11.602;2024-03-22T09:15:13;13.70;99.90
37938;DHT22;23763;48.130;11.602;2024-03-22T09:17:39;13.70;99.90
37938;DHT22;23763;48.130;11.602;2024-03-22T09:20:05;13.90;99.90
37938;DHT22;23763;48.130;11.602;2024-03-22T09:22:33;14.10;99.90
37938;DHT22;23763;48.130;11.602;2024-03-22T09:24:59;14.40;99.90
37938;DHT22;23763;48.130;11.602;2024-03-22T09:27:25;14.50;99.90
37938;DHT22;23763;48.130;11.602;2024-03-22T09:29:50;14.80;99.90
37938;DHT22;23763;48.130;11.602;2024-03-22T09:32:16;15.10;99.90
37938;DHT22;23763;48.130;11.602;2024-03-22T09:34:42;15.40;99.90
37938;DHT22;23763;48.130;11.602;2024-03-22T09:37:08;15.50;99.90
37938;DHT22;23763;48.130;11.602;2024-03-22T09:39:33;15.50;99.90
37938;DHT22;23763;48.130;11.602;2024-03-22T09:42:01;15.30;99.90
37938;DHT22;23763;48.130;11.602;2024-03-22T09:44:32;15.40;99.90
37938;DHT22;23763;48.130;11.602;2024-03-22T09:46:59;15.50;99.90
37938;DHT22;23763;48.130;11.602;2024-03-22T09:49:25;15.80;99.90
37938;DHT22;23763;48.130;11.602;2024-03-22T09:51:52;16.10;99.90
37938;DHT22;23763;48.130;11.602;2024-03-22T09:54:17;16.10;99.90
37938;DHT22;23763;48.130;11.602;2024-03-22T09:56:44;16.10;99.90
37938;DHT22;23763;48.130;11.602;2024-03-22T09:59:13;16.20;99.90
37938;DHT22;23763;48.130;11.602;2024-03-22T10:01:40;16.30;99.90
37938;DHT22;23763;48.130;11.602;2024-03-22T10:04:09;16.70;99.90
37938;DHT22;23763;48.130;11.602;2024-03-22T10:06:37;16.80;99.90
37938;DHT22;23763;48.130;11.602;2024-03-22T10:09:05;16.80;99.90
37938;DHT22;23763;48.130;11.602;2024-03-22T10:11:30;16.90;99.90
37938;DHT22;23763;48.130;11.602;2024-03-22T10:13:56;16.80;99.90
37938;DHT22;23763;48.130;11.602;2024-03-22T10:16:22;16.90;99.90
37938;DHT22;23763;48.130;11.602;2024-03-22T10:18:48;17.20;99.90
37938;DHT22;23763;48.130;11.602;2024-03-22T10:21:17;17.40;99.90
37938;DHT22;23763;48.130;11.602;2024-03-22T10:23:47;17.50;99.90
37938;DHT22;23763;48.130;11.602;2024-03-22T10:26:14;17.60;99.90
37938;DHT22;23763;48.130;11.602;2024-03-22T10:28:46;17.60;99.90
37938;DHT22;23763;48.130;11.602;2024-03-22T10:31:13;17.80;99.90
37938;DHT22;23763;48.130;11.602;2024-03-22T10:33:41;17.90;99.90
37938;DHT22;23763;48.130;11.602;2024-03-22T10:36:07;17.60;99.90
37938;DHT22;23763;48.130;11.602;2024-03-22T10:38:38;17.40;99.90
37938;DHT22;23763;48.130;11.602;2024-03-22T10:41:04;17.00;99.90
37938;DHT22;23763;48.130;11.602;2024-03-22T10:43:31;16.90;99.90
37938;DHT22;23763;48.130;11.602;2024-03-22T10:46:02;16.80;99.90
37938;DHT22;23763;48.130;11.602;2024-03-22T10:48:34;16.70;99.90
37938;DHT22;23763;48.130;11.602;2024-03-22T10:51:01;16.80;99.90
37938;DHT22;23763;48.130;11.602;2024-03-22T10:53:28;16.90;99.90
37938;DHT22;23763;48.130;11.602;2024-03-22T10:55:57;16.70;99.90
37938;DHT22;23763;48.130;11.602;2024-03-22T10:58:27;16.70;99.90
37938;DHT22;23763;48.130;11.602;2024-03-22T11:00:54;16.70;99.90
37938;DHT22;23763;48.130;11.602;2024-03-22T11:03:24;16.40;99.90
37938;DHT22;23763;48.130;11.602;2024-03-22T11:05:53;16.40;99.90
37938;DHT22;23763;48.130;11.602;2024-03-22T11:08:26;16.60;99.90
37938;DHT22;23763;48.130;11.602;2024-03-22T11:10:53;16.70;99.90
37938;DHT22;23763;48.130;11.602;2024-03-22T11:13:19;16.80;99.90
37938;DHT22;23763;48.130;11.602;2024-03-22T11:15:49;16.90;99.90
37938;DHT22;23763;48.130;11.602;2024-03-22T11:18:20;16.80;99.90
37938;DHT22;23763;48.130;11.602;2024-03-22T11:20:46;16.90;99.90
37938;DHT22;23763;48.130;11.602;2024-03-22T11:23:13;17.10;99.90
37938;DHT22;23763;48.130;11.602;2024-03-22T11:25:39;17.20;99.90
37938;DHT22;23763;48.130;11.602;2024-03-22T11:28:05;17.40;99.90
37938;DHT22;23763;48.130;11.602;2024-03-22T11:30:32;17.60;99.90
37938;DHT22;23763;48.130;11.602;2024-03-22T11:33:01;17.60;99.90
37938;DHT22;23763;48.130;11.602;2024-03-22T11:35:27;17.60;99.90
37938;DHT22;23763;48.130;11.602;2024-03-22T11:37:53;17.70;99.90
37938;DHT22;23763;48.130;11.602;2024-03-22T11:40:19;17.70;99.90
37938;DHT22;23763;48.130;11.602;2024-03-22T11:42:50;17.70;99.90
37938;DHT22;23763;48.130;11.602;2024-03-22T11:45:18;17.80;99.90
37938;DHT22;23763;48.130;11.602;2024-03-22T11:47:47;17.90;99.90
37938;DHT22;23763;48.130;11.602;2024-03-22T11:50:14;17.70;99.90
37938;DHT22;23763;48.130;11.602;2024-03-22T11:52:41;17.80;99.90
37938;DHT22;23763;48.130;11.602;2024-03-22T11:55:07;17.90;99.90
37938;DHT22;23763;48.130;11.602;2024-03-22T11:57:33;17.80;99.90
37938;DHT22;23763;48.130;11.602;2024-03-22T12:00:04;17.60;99.90
37938;DHT22;23763;48.130;11.602;2024-03-22T12:02:35;17.50;99.90
37938;DHT22;23763;48.130;11.602;2024-03-22T12:05:02;17.60;99.90
37938;DHT22;23763;48.130;11.602;2024-03-22T12:07:29;17.60;99.90
37938;DHT22;23763;48.130;11.602;2024-03-22T12:09:54;17.60;99.90
37938;DHT22;23763;48.130;11.602;2024-03-22T12:12:22;17.80;99.90
37938;DHT22;23763;48.130;11.602;2024-03-22T12:14:50;17.80;99.90
37938;DHT22;23763;48.130;11.602;2024-03-22T12:17:19;17.80;99.90
37938;DHT22;23763;48.130;11.602;2024-03-22T12:19:45;17.60;99.90
37938;DHT22;23763;48.130;11.602;2024-03-22T12:22:10;17.60;99.90
37938;DHT22;23763;48.130;11.602;2024-03-22T12:24:36;17.60;99.90
37938;DHT22;23763;48.130;11.602;2024-03-22T12:27:02;17.70;99.90
37938;DHT22;23763;48.130;11.602;2024-03-22T12:29:28;17.60;99.90
37938;DHT22;23763;48.130;11.602;2024-03-22T12:31:54;17.70;99.90
37938;DHT22;23763;48.130;11.602;2024-03-22T12:34:20;17.70;99.90
37938;DHT22;23763;48.130;11.602;2024-03-22T12:36:46;17.70;99.90
37938;DHT22;23763;48.130;11.602;2024-03-22T12:39:11;17.70;99.90
37938;DHT22;23763;48.130;11.602;2024-03-22T12:41:37;17.80;99.90
37938;DHT22;23763;48.130;11.602;2024-03-22T12:44:03;17.70;99.90
37938;DHT22;23763;48.130;11.602;2024-03-22T12:46:29;17.60;99.90
37938;DHT22;23763;48.130;11.602;2024-03-22T12:48:55;17.40;99.90
37938;DHT22;23763;48.130;11.602;2024-03-22T12:51:21;17.40;99.90
37938;DHT22;23763;48.130;11.602;2024-03-22T12:53:46;17.60;99.90
37938;DHT22;23763;48.130;11.602;2024-03-22T12:56:16;17.80;99.90
37938;DHT22;23763;48.130;11.602;2024-03-22T12:58:42;17.80;99.90
37938;DHT22;23763;48.130;11.602;2024-03-22T13:01:08;17.80;99.90
37938;DHT22;23763;48.130;11.602;2024-03-22T13:03:36;18.00;99.90
37938;DHT22;23763;48.130;11.602;2024-03-22T13:06:03;18.20;99.90
37938;DHT22;23763;48.130;11.602;2024-03-22T13:08:31;18.20;99.90
37938;DHT22;23763;48.130;11.602;2024-03-22T13:10:57;18.30;99.90
37938;DHT22;23763;48.130;11.602;2024-03-22T13:13:22;18.40;99.90
37938;DHT22;23763;48.130;11.602;2024-03-22T13:15:48;18.50;99.90
37938;DHT22;23763;48.130;11.602;2024-03-22T13:18:14;18.40;99.90
37938;DHT22;23763;48.130;11.602;2024-03-22T13:20:41;18.20;99.90
37938;DHT22;23763;48.130;11.602;2024-03-22T13:23:07;18.10;99.90
37938;DHT22;23763;48.130;11.602;2024-03-22T13:25:35;18.10;99.90
37938;DHT22;23763;48.130;11.602;2024-03-22T13:28:03;18.10;99.90
37938;DHT22;23763;48.130;11.602;2024-03-22T13:30:30;18.30;99.90
37938;DHT22;23763;48.130;11.602;2024-03-22T13:32:56;18.40;99.90
37938;DHT22;23763;48.130;11.602;2024-03-22T13:35:22;18.60;99.90
37938;DHT22;23763;48.130;11.602;2024-03-22T13:37:48;18.70;99.90
37938;DHT22;23763;48.130;11.602;2024-03-22T13:40:14;18.50;99.90
37938;DHT22;23763;48.130;11.602;2024-03-22T13:42:40;18.60;99.90
37938;DHT22;23763;48.130;11.602;2024-03-22T13:45:06;18.50;99.90
37938;DHT22;23763;48.130;11.602;2024-03-22T13:47:32;18.40;99.90
37938;DHT22;23763;48.130;11.602;2024-03-22T13:49:58;18.30;99.90
37938;DHT22;23763;48.130;11.602;2024-03-22T13:52:24;18.30;99.90
37938;DHT22;23763;48.130;11.602;2024-03-22T13:54:51;18.20;99.90
37938;DHT22;23763;48.130;11.602;2024-03-22T13:57:17;18.20;99.90
37938;DHT22;23763;48.130;11.602;2024-03-22T13:59:43;18.30;99.90
37938;DHT22;23763;48.130;11.602;2024-03-22T14:02:09;18.30;99.90
37938;DHT22;23763;48.130;11.602;2024-03-22T14:04:35;18.40;99.90
37938;DHT22;23763;48.130;11.602;2024-03-22T14:07:01;18.30;99.90
37938;DHT22;23763;48.130;11.602;2024-03-22T14:09:36;18.40;99.90
37938;DHT22;23763;48.130;11.602;2024-03-22T14:12:02;18.30;99.90
37938;DHT22;23763;48.130;11.602;2024-03-22T14:14:28;18.30;99.90
37938;DHT22;23763;48.130;11.602;2024-03-22T14:16:54;18.30;99.90
37938;DHT22;23763;48.130;11.602;2024-03-22T14:19:20;18.40;99.90
37938;DHT22;23763;48.130;11.602;2024-03-22T14:21:46;18.20;99.90
37938;DHT22;23763;48.130;11.602;2024-03-22T14:24:13;18.20;99.90
37938;DHT22;23763;48.130;11.602;2024-03-22T14:26:39;18.20;99.90
37938;DHT22;23763;48.130;11.602;2024-03-22T14:29:11;18.20;99.90
37938;DHT22;23763;48.130;11.602;2024-03-22T14:31:38;18.20;99.90
37938;DHT22;23763;48.130;11.602;2024-03-22T14:34:06;18.30;99.90
37938;DHT22;23763;48.130;11.602;2024-03-22T14:36:32;18.20;99.90
37938;DHT22;23763;48.130;11.602;2024-03-22T14:38:58;18.20;99.90
37938;DHT22;23763;48.130;11.602;2024-03-22T14:41:24;18.20;99.90
37938;DHT22;23763;48.130;11.602;2024-03-22T14:43:50;18.20;99.90
37938;DHT22;23763;48.130;11.602;2024-03-22T14:46:16;18.20;99.90
37938;DHT22;23763;48.130;11.602;2024-03-22T14:48:44;18.00;99.90
37938;DHT22;23763;48.130;11.602;2024-03-22T14:51:10;18.00;99.90
37938;DHT22;23763;48.130;11.602;2024-03-22T14:53:35;17.90;99.90
37938;DHT22;23763;48.130;11.602;2024-03-22T14:56:02;17.80;99.90
37938;DHT22;23763;48.130;11.602;2024-03-22T14:58:34;17.80;99.90
37938;DHT22;23763;48.130;11.602;2024-03-22T15:01:02;17.90;99.90
37938;DHT22;23763;48.130;11.602;2024-03-22T15:03:29;17.90;99.90
37938;DHT22;23763;48.130;11.602;2024-03-22T15:05:56;17.90;99.90
37938;DHT22;23763;48.130;11.602;2024-03-22T15:08:23;18.00;99.90
37938;DHT22;23763;48.130;11.602;2024-03-22T15:10:52;18.10;99.90
37938;DHT22;23763;48.130;11.602;2024-03-22T15:13:18;18.10;99.90
37938;DHT22;23763;48.130;11.602;2024-03-22T15:15:57;18.10;99.90
37938;DHT22;23763;48.130;11.602;2024-03-22T15:18:24;18.10;99.90
37938;DHT22;23763;48.130;11.602;2024-03-22T15:20:50;18.10;99.90
37938;DHT22;23763;48.130;11.602;2024-03-22T15:23:17;18.00;99.90
37938;DHT22;23763;48.130;11.602;2024-03-22T15:25:44;18.00;99.90
37938;DHT22;23763;48.130;11.602;2024-03-22T15:30:37;18.10;99.90
37938;DHT22;23763;48.130;11.602;2024-03-22T15:33:07;18.30;99.90
37938;DHT22;23763;48.130;11.602;2024-03-22T15:35:34;18.30;99.90
37938;DHT22;23763;48.130;11.602;2024-03-22T15:38:01;18.40;99.90
37938;DHT22;23763;48.130;11.602;2024-03-22T15:40:32;18.30;99.90
37938;DHT22;23763;48.130;11.602;2024-03-22T15:43:01;18.30;99.90
37938;DHT22;23763;48.130;11.602;2024-03-22T15:45:28;18.40;99.90
37938;DHT22;23763;48.130;11.602;2024-03-22T15:47:56;18.40;99.90
37938;DHT22;23763;48.130;11.602;2024-03-22T15:50:21;18.40;99.90
37938;DHT22;23763;48.130;11.602;2024-03-22T15:52:47;18.40;99.90
37938;DHT22;23763;48.130;11.602;2024-03-22T15:55:13;18.50;99.90
37938;DHT22;23763;48.130;11.602;2024-03-22T15:57:39;18.50;99.90
37938;DHT22;23763;48.130;11.602;2024-03-22T16:00:05;18.50;99.90
37938;DHT22;23763;48.130;11.602;2024-03-22T16:02:32;18.50;99.90
37938;DHT22;23763;48.130;11.602;2024-03-22T16:04:58;18.40;99.70
37938;DHT22;23763;48.130;11.602;2024-03-22T16:07:24;18.30;98.20
37938;DHT22;23763;48.130;11.602;2024-03-22T16:09:51;18.20;99.10
37938;DHT22;23763;48.130;11.602;2024-03-22T16:12:16;18.20;98.80
37938;DHT22;23763;48.130;11.602;2024-03-22T16:14:43;18.00;99.10
37938;DHT22;23763;48.130;11.602;2024-03-22T16:17:08;18.00;97.80
37938;DHT22;23763;48.130;11.602;2024-03-22T16:19:34;17.90;97.10
37938;DHT22;23763;48.130;11.602;2024-03-22T16:22:01;17.80;96.80
37938;DHT22;23763;48.130;11.602;2024-03-22T16:24:27;17.80;96.50
37938;DHT22;23763;48.130;11.602;2024-03-22T16:26:52;17.70;96.80
37938;DHT22;23763;48.130;11.602;2024-03-22T16:29:18;17.70;96.80
37938;DHT22;23763;48.130;11.602;2024-03-22T16:31:45;17.70;97.00
37938;DHT22;23763;48.130;11.602;2024-03-22T16:34:11;17.70;96.70
37938;DHT22;23763;48.130;11.602;2024-03-22T16:36:37;17.60;97.30
37938;DHT22;23763;48.130;11.602;2024-03-22T16:39:02;17.50;97.70
37938;DHT22;23763;48.130;11.602;2024-03-22T16:41:28;17.40;97.50
37938;DHT22;23763;48.130;11.602;2024-03-22T16:43:54;17.40;97.50
37938;DHT22;23763;48.130;11.602;2024-03-22T16:46:20;17.30;97.70
37938;DHT22;23763;48.130;11.602;2024-03-22T16:48:45;17.20;99.30
37938;DHT22;23763;48.130;11.602;2024-03-22T16:51:14;17.20;97.90
37938;DHT22;23763;48.130;11.602;2024-03-22T16:53:40;17.10;98.40
37938;DHT22;23763;48.130;11.602;2024-03-22T16:56:06;17.10;98.20
37938;DHT22;23763;48.130;11.602;2024-03-22T16:58:31;17.00;98.30
37938;DHT22;23763;48.130;11.602;2024-03-22T17:01:02;16.90;99.00
37938;DHT22;23763;48.130;11.602;2024-03-22T17:03:28;16.90;98.20
37938;DHT22;23763;48.130;11.602;2024-03-22T17:05:54;16.80;98.10
37938;DHT22;23763;48.130;11.602;2024-03-22T17:08:19;16.80;98.60
37938;DHT22;23763;48.130;11.602;2024-03-22T17:10:45;16.70;98.80
37938;DHT22;23763;48.130;11.602;2024-03-22T17:13:11;16.60;98.70
37938;DHT22;23763;48.130;11.602;2024-03-22T17:15:37;16.40;99.30
37938;DHT22;23763;48.130;11.602;2024-03-22T17:18:03;16.40;99.50
37938;DHT22;23763;48.130;11.602;2024-03-22T17:20:29;16.30;99.60
37938;DHT22;23763;48.130;11.602;2024-03-22T17:22:56;16.30;99.90
37938;DHT22;23763;48.130;11.602;2024-03-22T17:25:22;16.20;99.90
37938;DHT22;23763;48.130;11.602;2024-03-22T17:27:49;16.10;99.90
37938;DHT22;23763;48.130;11.602;2024-03-22T17:30:15;16.10;99.90
37938;DHT22;23763;48.130;11.602;2024-03-22T17:32:41;15.90;99.90
37938;DHT22;23763;48.130;11.602;2024-03-22T17:35:07;15.80;99.90
37938;DHT22;23763;48.130;11.602;2024-03-22T17:37:35;15.70;99.90
37938;DHT22;23763;48.130;11.602;2024-03-22T17:40:02;15.70;99.90
37938;DHT22;23763;48.130;11.602;2024-03-22T17:42:28;15.60;99.90
37938;DHT22;23763;48.130;11.602;2024-03-22T17:44:53;15.50;99.90
37938;DHT22;23763;48.130;11.602;2024-03-22T17:47:19;15.50;99.90
37938;DHT22;23763;48.130;11.602;2024-03-22T17:49:46;15.50;99.90
37938;DHT22;23763;48.130;11.602;2024-03-22T17:52:13;15.40;99.90
37938;DHT22;23763;48.130;11.602;2024-03-22T17:54:39;15.40;99.90
37938;DHT22;23763;48.130;11.602;2024-03-22T17:57:05;15.40;99.90
37938;DHT22;23763;48.130;11.602;2024-03-22T17:59:31;15.30;99.90
37938;DHT22;23763;48.130;11.602;2024-03-22T18:01:57;15.30;99.90
37938;DHT22;23763;48.130;11.602;2024-03-22T18:04:23;15.20;99.90
37938;DHT22;23763;48.130;11.602;2024-03-22T18:06:49;15.20;99.90
37938;DHT22;23763;48.130;11.602;2024-03-22T18:09:15;15.10;99.90
37938;DHT22;23763;48.130;11.602;2024-03-22T18:11:41;15.00;99.90
37938;DHT22;23763;48.130;11.602;2024-03-22T18:14:07;15.00;99.90
37938;DHT22;23763;48.130;11.602;2024-03-22T18:16:33;15.00;99.90
37938;DHT22;23763;48.130;11.602;2024-03-22T18:19:01;14.90;99.90
37938;DHT22;23763;48.130;11.602;2024-03-22T18:21:28;14.90;99.90
37938;DHT22;23763;48.130;11.602;2024-03-22T18:23:53;14.90;99.90
37938;DHT22;23763;48.130;11.602;2024-03-22T18:26:20;14.80;99.90
37938;DHT22;23763;48.130;11.602;2024-03-22T18:28:46;14.90;99.90
37938;DHT22;23763;48.130;11.602;2024-03-22T18:31:12;14.80;99.90
37938;DHT22;23763;48.130;11.602;2024-03-22T18:33:38;14.80;99.90
37938;DHT22;23763;48.130;11.602;2024-03-22T18:36:04;14.90;99.90
37938;DHT22;23763;48.130;11.602;2024-03-22T18:38:30;14.90;99.90
37938;DHT22;23763;48.130;11.602;2024-03-22T18:40:56;14.90;99.90
37938;DHT22;23763;48.130;11.602;2024-03-22T18:43:22;14.90;99.90
37938;DHT22;23763;48.130;11.602;2024-03-22T18:45:48;14.90;99.90